TAP55F LPPT-EDDM
Flight info
| Callsign | TAP55F |
|---|---|
| Flight time | 2h 38m |
| Altitude | 36000 |
| Route | IXIDA1N IXIDA DCT RIVRO DCT TOSDI DCT ZMR DCT NEA DCT DGO DCT LPA DCT GOSVI DCT TOPTU DCT TOU/N0448F360 DCT GAI DCT MEN DCT NINUN DCT LATAM DCT ETREK DCT LTP DCT SOPLO DCT OMASI DCT KINNI DCT LAMUR DCT KORED/N0450F350 DCT NUNRI T103 BETOS BETOS1B |
| Aircraft | A321/M-VGDW/C |
Departure
| Time | 2026-05-07 11:06 |
|---|---|
| Airport | Lisbon Humberto Delgado Airport (LPPT) |
Arrival
| Time | 2026-05-07 13:44 |
|---|---|
| Airport | Munich Airport (EDDM) |
| Time | Latitude | Longitude | Altitude | Speed | Heading |
|---|---|---|---|---|---|
| 2026-05-07 10:23 | 38.78059 | -9.12880 | 331 ft | 0 kts | 304° |
| 2026-05-07 10:49 | 38.78056 | -9.12875 | 331 ft | 3 kts | 303° |
| 2026-05-07 10:49 | 38.78041 | -9.12846 | 326 ft | 4 kts | 293° |
| 2026-05-07 10:49 | 38.78038 | -9.12817 | 327 ft | 4 kts | 245° |
| 2026-05-07 10:49 | 38.78052 | -9.12795 | 326 ft | 1 kts | 213° |
| 2026-05-07 10:50 | 38.78053 | -9.12794 | 326 ft | 0 kts | 213° |
| 2026-05-07 10:53 | 38.78020 | -9.12822 | 329 ft | 10 kts | 213° |
| 2026-05-07 10:53 | 38.77961 | -9.12871 | 329 ft | 10 kts | 213° |
| 2026-05-07 10:53 | 38.77908 | -9.12915 | 329 ft | 9 kts | 213° |
| 2026-05-07 10:53 | 38.77862 | -9.12954 | 329 ft | 8 kts | 213° |
| 2026-05-07 10:54 | 38.77789 | -9.13028 | 330 ft | 16 kts | 237° |
| 2026-05-07 10:54 | 38.77757 | -9.13167 | 337 ft | 15 kts | 258° |
| 2026-05-07 10:54 | 38.77750 | -9.13211 | 335 ft | 0 kts | 257° |
| 2026-05-07 10:54 | 38.77749 | -9.13214 | 336 ft | 0 kts | 257° |
| 2026-05-07 10:55 | 38.77749 | -9.13215 | 336 ft | 0 kts | 257° |
| 2026-05-07 10:55 | 38.77748 | -9.13220 | 336 ft | 3 kts | 257° |
| 2026-05-07 10:56 | 38.77738 | -9.13281 | 333 ft | 11 kts | 257° |
| 2026-05-07 10:56 | 38.77723 | -9.13338 | 336 ft | 10 kts | 236° |
| 2026-05-07 10:56 | 38.77651 | -9.13390 | 346 ft | 13 kts | 203° |
| 2026-05-07 10:56 | 38.77594 | -9.13423 | 347 ft | 2 kts | 205° |
| 2026-05-07 10:57 | 38.77590 | -9.13425 | 351 ft | 0 kts | 205° |
| 2026-05-07 10:57 | 38.77580 | -9.13431 | 349 ft | 5 kts | 205° |
| 2026-05-07 10:57 | 38.77516 | -9.13469 | 352 ft | 12 kts | 214° |
| 2026-05-07 10:57 | 38.77472 | -9.13510 | 347 ft | 0 kts | 215° |
| 2026-05-07 10:58 | 38.77459 | -9.13520 | 349 ft | 7 kts | 212° |
| 2026-05-07 10:58 | 38.77397 | -9.13525 | 352 ft | 13 kts | 168° |
| 2026-05-07 10:58 | 38.77294 | -9.13550 | 357 ft | 19 kts | 231° |
| 2026-05-07 10:58 | 38.77258 | -9.13726 | 359 ft | 18 kts | 259° |
| 2026-05-07 10:59 | 38.77213 | -9.13851 | 357 ft | 14 kts | 211° |
| 2026-05-07 10:59 | 38.77123 | -9.13903 | 360 ft | 14 kts | 202° |
| 2026-05-07 10:59 | 38.77031 | -9.13953 | 353 ft | 15 kts | 203° |
| 2026-05-07 10:59 | 38.76932 | -9.14006 | 353 ft | 16 kts | 202° |
| 2026-05-07 11:00 | 38.76822 | -9.14064 | 349 ft | 18 kts | 202° |
| 2026-05-07 11:00 | 38.76709 | -9.14124 | 344 ft | 18 kts | 202° |
| 2026-05-07 11:00 | 38.76622 | -9.14169 | 337 ft | 13 kts | 202° |
| 2026-05-07 11:00 | 38.76599 | -9.14252 | 339 ft | 5 kts | 290° |
| 2026-05-07 11:01 | 38.76604 | -9.14266 | 336 ft | 0 kts | 292° |
| 2026-05-07 11:02 | 38.76605 | -9.14269 | 336 ft | 1 kts | 292° |
| 2026-05-07 11:02 | 38.76620 | -9.14315 | 333 ft | 10 kts | 292° |
| 2026-05-07 11:03 | 38.76662 | -9.14370 | 335 ft | 8 kts | 346° |
| 2026-05-07 11:03 | 38.76695 | -9.14360 | 338 ft | 0 kts | 21° |
| 2026-05-07 11:04 | 38.76698 | -9.14359 | 334 ft | 4 kts | 21° |
| 2026-05-07 11:05 | 38.76891 | -9.14262 | 347 ft | 65 kts | 22° |
| 2026-05-07 11:05 | 38.77491 | -9.13943 | 368 ft | 122 kts | 22° |
| 2026-05-07 11:05 | 38.78422 | -9.13441 | 367 ft | 167 kts | 25° |
| 2026-05-07 11:05 | 38.79561 | -9.12805 | 677 ft | 180 kts | 21° |
| 2026-05-07 11:06 | 38.80664 | -9.12106 | 1399 ft | 170 kts | 25° |
| 2026-05-07 11:06 | 38.81673 | -9.11334 | 1948 ft | 174 kts | 29° |
| 2026-05-07 11:06 | 38.82763 | -9.10479 | 2151 ft | 192 kts | 27° |
| 2026-05-07 11:06 | 38.83941 | -9.09567 | 2412 ft | 206 kts | 28° |
| 2026-05-07 11:07 | 38.85224 | -9.08557 | 2627 ft | 228 kts | 30° |
| 2026-05-07 11:07 | 38.86647 | -9.07425 | 2913 ft | 247 kts | 30° |
| 2026-05-07 11:07 | 38.88128 | -9.06259 | 3644 ft | 253 kts | 30° |
| 2026-05-07 11:07 | 38.89627 | -9.05098 | 4372 ft | 257 kts | 30° |
| 2026-05-07 11:08 | 38.91177 | -9.03917 | 5103 ft | 260 kts | 29° |
| 2026-05-07 11:08 | 38.92676 | -9.02611 | 5817 ft | 262 kts | 38° |
| 2026-05-07 11:08 | 38.94031 | -9.01002 | 6496 ft | 266 kts | 43° |
| 2026-05-07 11:08 | 38.95339 | -8.99292 | 7136 ft | 271 kts | 44° |
| 2026-05-07 11:09 | 38.96668 | -8.97554 | 7759 ft | 275 kts | 44° |
| 2026-05-07 11:09 | 38.98026 | -8.95814 | 8391 ft | 279 kts | 44° |
| 2026-05-07 11:09 | 38.99428 | -8.94031 | 9028 ft | 284 kts | 44° |
| 2026-05-07 11:09 | 39.00837 | -8.92247 | 9644 ft | 288 kts | 44° |
| 2026-05-07 11:10 | 39.02285 | -8.90417 | 10175 ft | 295 kts | 44° |
| 2026-05-07 11:10 | 39.03791 | -8.88511 | 10296 ft | 316 kts | 44° |
| 2026-05-07 11:10 | 39.05406 | -8.86462 | 10427 ft | 335 kts | 44° |
| 2026-05-07 11:10 | 39.07113 | -8.84288 | 10556 ft | 353 kts | 44° |
| 2026-05-07 11:11 | 39.08896 | -8.82012 | 10949 ft | 362 kts | 44° |
| 2026-05-07 11:11 | 39.10676 | -8.79740 | 11469 ft | 366 kts | 44° |
| 2026-05-07 11:11 | 39.12494 | -8.77418 | 12006 ft | 369 kts | 44° |
| 2026-05-07 11:11 | 39.14331 | -8.75068 | 12560 ft | 373 kts | 44° |
| 2026-05-07 11:12 | 39.16190 | -8.72685 | 13117 ft | 376 kts | 43° |
| 2026-05-07 11:12 | 39.18050 | -8.70303 | 13655 ft | 380 kts | 43° |
| 2026-05-07 11:12 | 39.19916 | -8.67911 | 14135 ft | 383 kts | 43° |
| 2026-05-07 11:12 | 39.21827 | -8.65457 | 14605 ft | 386 kts | 43° |
| 2026-05-07 11:13 | 39.23726 | -8.63023 | 15072 ft | 389 kts | 43° |
| 2026-05-07 11:13 | 39.25663 | -8.60537 | 15542 ft | 392 kts | 43° |
| 2026-05-07 11:13 | 39.27584 | -8.58068 | 15993 ft | 395 kts | 43° |
| 2026-05-07 11:13 | 39.29538 | -8.55553 | 16467 ft | 398 kts | 43° |
| 2026-05-07 11:14 | 39.31514 | -8.53005 | 16890 ft | 400 kts | 43° |
| 2026-05-07 11:14 | 39.33482 | -8.50469 | 17302 ft | 403 kts | 43° |
| 2026-05-07 11:14 | 39.35469 | -8.47902 | 17702 ft | 406 kts | 43° |
| 2026-05-07 11:14 | 39.37489 | -8.45289 | 18107 ft | 409 kts | 43° |
| 2026-05-07 11:15 | 39.39488 | -8.42701 | 18449 ft | 411 kts | 43° |
| 2026-05-07 11:15 | 39.41527 | -8.40062 | 18799 ft | 414 kts | 43° |
| 2026-05-07 11:15 | 39.43549 | -8.37447 | 19140 ft | 416 kts | 43° |
| 2026-05-07 11:15 | 39.45598 | -8.34793 | 19491 ft | 418 kts | 43° |
| 2026-05-07 11:16 | 39.47654 | -8.32127 | 19836 ft | 420 kts | 43° |
| 2026-05-07 11:16 | 39.49725 | -8.29442 | 20187 ft | 422 kts | 43° |
| 2026-05-07 11:16 | 39.51801 | -8.26752 | 20553 ft | 424 kts | 43° |
| 2026-05-07 11:16 | 39.53891 | -8.24038 | 20911 ft | 426 kts | 43° |
| 2026-05-07 11:17 | 39.55983 | -8.21312 | 21273 ft | 428 kts | 43° |
| 2026-05-07 11:17 | 39.58089 | -8.18560 | 21637 ft | 431 kts | 43° |
| 2026-05-07 11:17 | 39.60205 | -8.15792 | 22004 ft | 433 kts | 43° |
| 2026-05-07 11:17 | 39.62327 | -8.13015 | 22362 ft | 435 kts | 43° |
| 2026-05-07 11:18 | 39.64436 | -8.10258 | 22703 ft | 437 kts | 43° |
| 2026-05-07 11:18 | 39.66615 | -8.07411 | 23067 ft | 440 kts | 43° |
| 2026-05-07 11:18 | 39.68757 | -8.04615 | 23417 ft | 442 kts | 43° |
| 2026-05-07 11:18 | 39.70929 | -8.01779 | 23722 ft | 444 kts | 43° |
| 2026-05-07 11:19 | 39.73110 | -7.98923 | 24018 ft | 446 kts | 43° |
| 2026-05-07 11:19 | 39.75295 | -7.96055 | 24313 ft | 448 kts | 43° |
| 2026-05-07 11:19 | 39.77487 | -7.93175 | 24598 ft | 449 kts | 43° |
| 2026-05-07 11:19 | 39.79691 | -7.90279 | 24895 ft | 451 kts | 43° |
| 2026-05-07 11:20 | 39.81897 | -7.87376 | 25185 ft | 453 kts | 43° |
| 2026-05-07 11:20 | 39.84110 | -7.84458 | 25455 ft | 454 kts | 43° |
| 2026-05-07 11:20 | 39.86317 | -7.81542 | 25746 ft | 456 kts | 43° |
| 2026-05-07 11:20 | 39.88559 | -7.78577 | 26029 ft | 458 kts | 43° |
| 2026-05-07 11:21 | 39.90806 | -7.75606 | 26308 ft | 459 kts | 43° |
| 2026-05-07 11:21 | 39.93031 | -7.72660 | 26585 ft | 461 kts | 43° |
| 2026-05-07 11:21 | 39.95277 | -7.69686 | 26851 ft | 463 kts | 43° |
| 2026-05-07 11:21 | 39.97554 | -7.66670 | 27118 ft | 464 kts | 43° |
| 2026-05-07 11:22 | 39.99835 | -7.63644 | 27375 ft | 466 kts | 43° |
| 2026-05-07 11:22 | 40.02082 | -7.60662 | 27610 ft | 467 kts | 43° |
| 2026-05-07 11:22 | 40.04364 | -7.57636 | 27848 ft | 469 kts | 43° |
| 2026-05-07 11:22 | 40.06657 | -7.54591 | 28060 ft | 470 kts | 42° |
| 2026-05-07 11:23 | 40.08954 | -7.51534 | 28272 ft | 472 kts | 42° |
| 2026-05-07 11:23 | 40.11251 | -7.48471 | 28452 ft | 473 kts | 43° |
| 2026-05-07 11:23 | 40.13551 | -7.45397 | 28652 ft | 474 kts | 43° |
| 2026-05-07 11:23 | 40.15853 | -7.42314 | 28933 ft | 473 kts | 42° |
| 2026-05-07 11:24 | 40.18144 | -7.39241 | 29210 ft | 472 kts | 42° |
| 2026-05-07 11:24 | 40.20438 | -7.36162 | 29459 ft | 472 kts | 42° |
| 2026-05-07 11:24 | 40.22725 | -7.33093 | 29714 ft | 471 kts | 42° |
| 2026-05-07 11:24 | 40.25005 | -7.30031 | 29955 ft | 471 kts | 42° |
| 2026-05-07 11:25 | 40.27300 | -7.26948 | 30163 ft | 470 kts | 42° |
| 2026-05-07 11:25 | 40.29569 | -7.23900 | 30351 ft | 470 kts | 42° |
| 2026-05-07 11:25 | 40.31852 | -7.20832 | 30558 ft | 470 kts | 42° |
| 2026-05-07 11:25 | 40.34131 | -7.17762 | 30772 ft | 470 kts | 42° |
| 2026-05-07 11:26 | 40.36406 | -7.14694 | 30973 ft | 470 kts | 42° |
| 2026-05-07 11:26 | 40.38688 | -7.11616 | 31173 ft | 469 kts | 42° |
| 2026-05-07 11:26 | 40.40961 | -7.08543 | 31389 ft | 469 kts | 42° |
| 2026-05-07 11:26 | 40.43235 | -7.05466 | 31602 ft | 469 kts | 42° |
| 2026-05-07 11:27 | 40.45501 | -7.02399 | 31800 ft | 469 kts | 42° |
| 2026-05-07 11:27 | 40.47742 | -6.99357 | 32007 ft | 469 kts | 43° |
| 2026-05-07 11:27 | 40.50031 | -6.96240 | 32226 ft | 468 kts | 43° |
| 2026-05-07 11:27 | 40.52267 | -6.93191 | 32440 ft | 468 kts | 43° |
| 2026-05-07 11:28 | 40.54526 | -6.90112 | 32652 ft | 468 kts | 43° |
| 2026-05-07 11:28 | 40.56788 | -6.87035 | 32860 ft | 468 kts | 43° |
| 2026-05-07 11:28 | 40.59045 | -6.83963 | 33072 ft | 468 kts | 43° |
| 2026-05-07 11:28 | 40.61317 | -6.80869 | 33263 ft | 467 kts | 43° |
| 2026-05-07 11:29 | 40.63582 | -6.77780 | 33468 ft | 467 kts | 43° |
| 2026-05-07 11:29 | 40.65823 | -6.74721 | 33662 ft | 467 kts | 43° |
| 2026-05-07 11:29 | 40.68085 | -6.71629 | 33866 ft | 467 kts | 43° |
| 2026-05-07 11:29 | 40.70317 | -6.68574 | 34030 ft | 467 kts | 43° |
| 2026-05-07 11:30 | 40.72588 | -6.65460 | 34231 ft | 466 kts | 41° |
| 2026-05-07 11:30 | 40.74827 | -6.62381 | 34507 ft | 462 kts | 42° |
| 2026-05-07 11:30 | 40.77025 | -6.59354 | 34708 ft | 460 kts | 42° |
| 2026-05-07 11:30 | 40.79229 | -6.56318 | 34874 ft | 460 kts | 42° |
| 2026-05-07 11:31 | 40.81448 | -6.53259 | 34993 ft | 460 kts | 42° |
| 2026-05-07 11:31 | 40.83667 | -6.50201 | 35129 ft | 460 kts | 42° |
| 2026-05-07 11:31 | 40.85886 | -6.47140 | 35255 ft | 460 kts | 42° |
| 2026-05-07 11:31 | 40.88107 | -6.44072 | 35389 ft | 461 kts | 43° |
| 2026-05-07 11:32 | 40.92538 | -6.37940 | 35628 ft | 461 kts | 43° |
| 2026-05-07 11:32 | 40.94750 | -6.34877 | 35769 ft | 460 kts | 43° |
| 2026-05-07 11:32 | 40.96967 | -6.31803 | 35889 ft | 461 kts | 43° |
| 2026-05-07 11:33 | 40.99149 | -6.28781 | 35902 ft | 461 kts | 42° |
| 2026-05-07 11:33 | 41.03785 | -6.22949 | 35906 ft | 459 kts | 38° |
| 2026-05-07 11:34 | 41.08608 | -6.17396 | 35909 ft | 459 kts | 38° |
| 2026-05-07 11:34 | 41.13420 | -6.11823 | 35909 ft | 460 kts | 38° |
| 2026-05-07 11:35 | 41.18185 | -6.06130 | 35911 ft | 461 kts | 39° |
| 2026-05-07 11:35 | 41.22918 | -6.00396 | 35915 ft | 461 kts | 40° |
| 2026-05-07 11:36 | 41.27675 | -5.94653 | 35920 ft | 462 kts | 40° |
| 2026-05-07 11:36 | 41.32443 | -5.88917 | 35921 ft | 462 kts | 40° |
| 2026-05-07 11:37 | 41.37211 | -5.83154 | 35920 ft | 463 kts | 40° |
| 2026-05-07 11:37 | 41.41959 | -5.77406 | 35920 ft | 463 kts | 40° |
| 2026-05-07 11:38 | 41.46726 | -5.71634 | 35918 ft | 464 kts | 40° |
| 2026-05-07 11:38 | 41.51414 | -5.65721 | 35923 ft | 465 kts | 48° |
| 2026-05-07 11:39 | 41.54881 | -5.58426 | 35918 ft | 468 kts | 65° |
| 2026-05-07 11:39 | 41.57517 | -5.50461 | 35919 ft | 469 kts | 65° |
| 2026-05-07 11:40 | 41.60172 | -5.42506 | 35920 ft | 469 kts | 65° |
| 2026-05-07 11:40 | 41.62810 | -5.34571 | 35928 ft | 470 kts | 65° |
| 2026-05-07 11:41 | 41.65445 | -5.26569 | 35927 ft | 470 kts | 66° |
| 2026-05-07 11:41 | 41.68075 | -5.18559 | 35931 ft | 470 kts | 66° |
| 2026-05-07 11:42 | 41.70713 | -5.10526 | 35932 ft | 470 kts | 66° |
| 2026-05-07 11:42 | 41.73333 | -5.02524 | 35931 ft | 471 kts | 66° |
| 2026-05-07 11:43 | 41.75957 | -4.94485 | 35931 ft | 471 kts | 67° |
| 2026-05-07 11:43 | 41.78578 | -4.86425 | 35930 ft | 471 kts | 67° |
| 2026-05-07 11:44 | 41.81178 | -4.78411 | 35931 ft | 471 kts | 67° |
| 2026-05-07 11:44 | 41.83786 | -4.70330 | 35930 ft | 472 kts | 67° |
| 2026-05-07 11:45 | 41.86387 | -4.62274 | 35934 ft | 472 kts | 67° |
| 2026-05-07 11:45 | 41.88556 | -4.55554 | 35933 ft | 472 kts | 68° |
| 2026-05-07 11:46 | 41.91148 | -4.47456 | 35933 ft | 472 kts | 68° |
| 2026-05-07 11:46 | 41.93740 | -4.39322 | 35934 ft | 472 kts | 68° |
| 2026-05-07 11:47 | 41.96326 | -4.31199 | 35935 ft | 472 kts | 68° |
| 2026-05-07 11:47 | 41.98898 | -4.23131 | 35935 ft | 472 kts | 68° |
| 2026-05-07 11:48 | 42.01473 | -4.14999 | 35935 ft | 472 kts | 69° |
| 2026-05-07 11:48 | 42.04094 | -4.06856 | 35936 ft | 473 kts | 67° |
| 2026-05-07 11:49 | 42.06913 | -3.98878 | 35936 ft | 473 kts | 65° |
| 2026-05-07 11:49 | 42.09816 | -3.90899 | 35937 ft | 474 kts | 66° |
| 2026-05-07 11:50 | 42.12665 | -3.82901 | 35944 ft | 474 kts | 66° |
| 2026-05-07 11:50 | 42.15456 | -3.74899 | 35947 ft | 474 kts | 67° |
| 2026-05-07 11:51 | 42.18258 | -3.66832 | 35951 ft | 474 kts | 67° |
| 2026-05-07 11:51 | 42.21047 | -3.58815 | 35957 ft | 474 kts | 67° |
| 2026-05-07 11:52 | 42.23835 | -3.50783 | 35955 ft | 474 kts | 67° |
| 2026-05-07 11:52 | 42.26628 | -3.42712 | 35951 ft | 474 kts | 67° |
| 2026-05-07 11:53 | 42.29407 | -3.34662 | 35952 ft | 474 kts | 67° |
| 2026-05-07 11:53 | 42.32192 | -3.26578 | 35958 ft | 474 kts | 67° |
| 2026-05-07 11:54 | 42.34968 | -3.18488 | 35950 ft | 474 kts | 67° |
| 2026-05-07 11:54 | 42.37723 | -3.10445 | 35950 ft | 474 kts | 67° |
| 2026-05-07 11:55 | 42.40495 | -3.02311 | 35950 ft | 474 kts | 67° |
| 2026-05-07 11:55 | 42.43245 | -2.94234 | 35948 ft | 474 kts | 68° |
| 2026-05-07 11:56 | 42.45173 | -2.85770 | 35943 ft | 467 kts | 85° |
| 2026-05-07 11:56 | 42.45474 | -2.77052 | 35949 ft | 464 kts | 92° |
| 2026-05-07 11:57 | 42.45606 | -2.68341 | 35960 ft | 464 kts | 92° |
| 2026-05-07 11:57 | 42.45743 | -2.59588 | 35978 ft | 464 kts | 92° |
| 2026-05-07 11:58 | 42.45853 | -2.50868 | 36004 ft | 464 kts | 92° |
| 2026-05-07 11:58 | 42.45948 | -2.42101 | 36007 ft | 464 kts | 92° |
| 2026-05-07 11:59 | 42.46107 | -2.33373 | 36008 ft | 466 kts | 87° |
| 2026-05-07 11:59 | 42.47399 | -2.24732 | 36009 ft | 469 kts | 80° |
| 2026-05-07 12:00 | 42.48833 | -2.16174 | 36007 ft | 469 kts | 80° |
| 2026-05-07 12:00 | 42.50255 | -2.07526 | 35993 ft | 469 kts | 80° |
| 2026-05-07 12:01 | 42.51667 | -1.98880 | 35984 ft | 469 kts | 80° |
| 2026-05-07 12:01 | 42.53070 | -1.90288 | 35973 ft | 469 kts | 80° |
| 2026-05-07 12:02 | 42.54488 | -1.81639 | 35971 ft | 469 kts | 80° |
| 2026-05-07 12:02 | 42.55900 | -1.72978 | 35972 ft | 469 kts | 80° |
| 2026-05-07 12:03 | 42.57292 | -1.64372 | 35980 ft | 469 kts | 81° |
| 2026-05-07 12:03 | 42.58682 | -1.55710 | 35977 ft | 469 kts | 81° |
| 2026-05-07 12:04 | 42.60058 | -1.47077 | 35969 ft | 469 kts | 81° |
| 2026-05-07 12:04 | 42.61439 | -1.38385 | 35971 ft | 470 kts | 81° |
| 2026-05-07 12:05 | 42.62813 | -1.29721 | 35978 ft | 470 kts | 81° |
| 2026-05-07 12:05 | 42.64169 | -1.21097 | 35977 ft | 470 kts | 81° |
| 2026-05-07 12:06 | 42.65527 | -1.12401 | 35977 ft | 469 kts | 81° |
| 2026-05-07 12:06 | 42.66877 | -1.03748 | 35977 ft | 469 kts | 81° |
| 2026-05-07 12:07 | 42.68236 | -0.95036 | 35979 ft | 470 kts | 81° |
| 2026-05-07 12:07 | 42.69577 | -0.86363 | 35976 ft | 469 kts | 81° |
| 2026-05-07 12:08 | 42.70908 | -0.77664 | 35976 ft | 469 kts | 81° |
| 2026-05-07 12:08 | 42.72237 | -0.68965 | 35977 ft | 469 kts | 81° |
| 2026-05-07 12:09 | 42.73555 | -0.60273 | 35971 ft | 469 kts | 81° |
| 2026-05-07 12:09 | 42.74856 | -0.51617 | 35969 ft | 470 kts | 81° |
| 2026-05-07 12:10 | 42.76161 | -0.42916 | 35969 ft | 470 kts | 81° |
| 2026-05-07 12:10 | 42.77465 | -0.34190 | 35969 ft | 470 kts | 81° |
| 2026-05-07 12:11 | 42.78773 | -0.25468 | 35972 ft | 471 kts | 78° |
| 2026-05-07 12:11 | 42.81244 | -0.17213 | 35967 ft | 474 kts | 59° |
| 2026-05-07 12:12 | 42.85279 | -0.10082 | 35967 ft | 475 kts | 51° |
| 2026-05-07 12:12 | 42.89441 | -0.03148 | 35979 ft | 475 kts | 51° |
| 2026-05-07 12:13 | 42.93628 | 0.03883 | 35984 ft | 476 kts | 51° |
| 2026-05-07 12:13 | 42.97805 | 0.10874 | 35990 ft | 476 kts | 51° |
| 2026-05-07 12:14 | 43.01993 | 0.17879 | 35997 ft | 476 kts | 51° |
| 2026-05-07 12:14 | 43.06173 | 0.24902 | 35998 ft | 476 kts | 51° |
| 2026-05-07 12:15 | 43.10357 | 0.31957 | 35998 ft | 476 kts | 51° |
| 2026-05-07 12:15 | 43.14507 | 0.38958 | 35996 ft | 476 kts | 51° |
| 2026-05-07 12:16 | 43.18694 | 0.46025 | 36002 ft | 476 kts | 51° |
| 2026-05-07 12:16 | 43.22832 | 0.53054 | 35995 ft | 476 kts | 52° |
| 2026-05-07 12:17 | 43.26976 | 0.60120 | 35995 ft | 476 kts | 52° |
| 2026-05-07 12:17 | 43.31150 | 0.67256 | 35999 ft | 476 kts | 52° |
| 2026-05-07 12:18 | 43.35299 | 0.74339 | 36004 ft | 476 kts | 52° |
| 2026-05-07 12:18 | 43.39437 | 0.81424 | 36000 ft | 476 kts | 52° |
| 2026-05-07 12:19 | 43.43566 | 0.88514 | 36004 ft | 476 kts | 52° |
| 2026-05-07 12:19 | 43.47713 | 0.95649 | 36006 ft | 476 kts | 52° |
| 2026-05-07 12:20 | 43.51873 | 1.02814 | 36018 ft | 477 kts | 52° |
| 2026-05-07 12:20 | 43.55983 | 1.09921 | 36030 ft | 477 kts | 52° |
| 2026-05-07 12:21 | 43.60119 | 1.17091 | 36032 ft | 477 kts | 52° |
| 2026-05-07 12:21 | 43.64239 | 1.24270 | 36038 ft | 477 kts | 52° |
| 2026-05-07 12:22 | 43.68354 | 1.31454 | 36039 ft | 477 kts | 52° |
| 2026-05-07 12:22 | 43.72351 | 1.38738 | 36037 ft | 477 kts | 54° |
| 2026-05-07 12:23 | 43.76267 | 1.46196 | 36029 ft | 478 kts | 54° |
| 2026-05-07 12:23 | 43.80150 | 1.53606 | 36024 ft | 478 kts | 54° |
| 2026-05-07 12:24 | 43.84104 | 1.61054 | 36024 ft | 478 kts | 54° |
| 2026-05-07 12:24 | 43.88040 | 1.68459 | 36012 ft | 479 kts | 54° |
| 2026-05-07 12:25 | 43.91965 | 1.75882 | 36013 ft | 479 kts | 54° |
| 2026-05-07 12:25 | 43.95892 | 1.83352 | 36014 ft | 479 kts | 54° |
| 2026-05-07 12:26 | 43.99749 | 1.90961 | 36016 ft | 479 kts | 56° |
| 2026-05-07 12:26 | 44.03501 | 1.98580 | 36012 ft | 479 kts | 56° |
| 2026-05-07 12:27 | 44.07264 | 2.06223 | 36015 ft | 479 kts | 56° |
| 2026-05-07 12:27 | 44.11042 | 2.13849 | 36012 ft | 480 kts | 56° |
| 2026-05-07 12:28 | 44.14831 | 2.21506 | 36019 ft | 480 kts | 56° |
| 2026-05-07 12:28 | 44.18605 | 2.29141 | 36022 ft | 480 kts | 56° |
| 2026-05-07 12:29 | 44.22388 | 2.36836 | 36031 ft | 480 kts | 56° |
| 2026-05-07 12:29 | 44.26149 | 2.44515 | 36033 ft | 480 kts | 56° |
| 2026-05-07 12:30 | 44.29908 | 2.52206 | 36034 ft | 480 kts | 56° |
| 2026-05-07 12:30 | 44.33653 | 2.59885 | 36033 ft | 480 kts | 56° |
| 2026-05-07 12:31 | 44.37417 | 2.67608 | 36031 ft | 480 kts | 56° |
| 2026-05-07 12:31 | 44.41185 | 2.75374 | 36030 ft | 481 kts | 56° |
| 2026-05-07 12:32 | 44.44919 | 2.83104 | 36021 ft | 481 kts | 56° |
| 2026-05-07 12:32 | 44.48659 | 2.90854 | 36014 ft | 481 kts | 56° |
| 2026-05-07 12:33 | 44.54270 | 3.02514 | 36005 ft | 481 kts | 56° |
| 2026-05-07 12:33 | 44.58017 | 3.10345 | 36007 ft | 482 kts | 56° |
| 2026-05-07 12:34 | 44.61704 | 3.18154 | 36005 ft | 482 kts | 58° |
| 2026-05-07 12:34 | 44.65070 | 3.26273 | 36006 ft | 482 kts | 61° |
| 2026-05-07 12:35 | 44.67721 | 3.33176 | 36000 ft | 482 kts | 62° |
| 2026-05-07 12:35 | 44.71461 | 3.42814 | 35999 ft | 483 kts | 61° |
| 2026-05-07 12:36 | 44.74201 | 3.49691 | 36004 ft | 483 kts | 60° |
| 2026-05-07 12:36 | 44.77508 | 3.57938 | 36002 ft | 483 kts | 60° |
| 2026-05-07 12:37 | 44.80805 | 3.66223 | 36009 ft | 484 kts | 60° |
| 2026-05-07 12:37 | 44.84073 | 3.74498 | 36017 ft | 484 kts | 60° |
| 2026-05-07 12:38 | 44.87340 | 3.82801 | 36019 ft | 484 kts | 60° |
| 2026-05-07 12:38 | 44.90596 | 3.91098 | 36025 ft | 485 kts | 60° |
| 2026-05-07 12:39 | 44.93855 | 3.99419 | 36023 ft | 485 kts | 60° |
| 2026-05-07 12:39 | 44.97127 | 4.07769 | 36019 ft | 486 kts | 60° |
| 2026-05-07 12:40 | 45.00361 | 4.16084 | 36021 ft | 486 kts | 60° |
| 2026-05-07 12:40 | 45.03601 | 4.24479 | 36012 ft | 486 kts | 60° |
| 2026-05-07 12:41 | 45.06840 | 4.32853 | 36013 ft | 486 kts | 60° |
| 2026-05-07 12:41 | 45.10089 | 4.41261 | 36017 ft | 486 kts | 60° |
| 2026-05-07 12:42 | 45.13318 | 4.49648 | 36014 ft | 487 kts | 60° |
| 2026-05-07 12:42 | 45.16550 | 4.58080 | 36017 ft | 487 kts | 60° |
| 2026-05-07 12:43 | 45.19772 | 4.66509 | 36016 ft | 487 kts | 60° |
| 2026-05-07 12:43 | 45.22994 | 4.74959 | 36020 ft | 487 kts | 60° |
| 2026-05-07 12:44 | 45.26213 | 4.83429 | 36017 ft | 487 kts | 60° |
| 2026-05-07 12:44 | 45.29424 | 4.91894 | 36016 ft | 487 kts | 60° |
| 2026-05-07 12:45 | 45.32629 | 5.00382 | 36017 ft | 487 kts | 60° |
| 2026-05-07 12:45 | 45.35798 | 5.08828 | 36016 ft | 488 kts | 60° |
| 2026-05-07 12:46 | 45.38999 | 5.17377 | 36015 ft | 488 kts | 60° |
| 2026-05-07 12:46 | 45.42171 | 5.25849 | 36016 ft | 488 kts | 60° |
| 2026-05-07 12:47 | 45.45336 | 5.34330 | 36018 ft | 488 kts | 60° |
| 2026-05-07 12:47 | 45.48695 | 5.42649 | 36017 ft | 485 kts | 51° |
| 2026-05-07 12:48 | 45.53335 | 5.49545 | 36013 ft | 480 kts | 38° |
| 2026-05-07 12:48 | 45.58304 | 5.55849 | 36011 ft | 480 kts | 39° |
| 2026-05-07 12:49 | 45.63297 | 5.62251 | 36016 ft | 481 kts | 39° |
| 2026-05-07 12:49 | 45.68256 | 5.68636 | 36017 ft | 481 kts | 39° |
| 2026-05-07 12:50 | 45.73229 | 5.75041 | 36015 ft | 481 kts | 39° |
| 2026-05-07 12:50 | 45.78187 | 5.81408 | 36017 ft | 480 kts | 39° |
| 2026-05-07 12:51 | 45.83164 | 5.87799 | 36018 ft | 480 kts | 39° |
| 2026-05-07 12:51 | 45.88107 | 5.94169 | 36021 ft | 480 kts | 39° |
| 2026-05-07 12:52 | 45.92606 | 6.01327 | 36021 ft | 484 kts | 53° |
| 2026-05-07 12:52 | 45.96237 | 6.09554 | 36019 ft | 485 kts | 57° |
| 2026-05-07 12:53 | 45.99760 | 6.17741 | 36022 ft | 484 kts | 55° |
| 2026-05-07 12:53 | 46.03524 | 6.25671 | 36024 ft | 483 kts | 52° |
| 2026-05-07 12:54 | 46.07449 | 6.33571 | 36029 ft | 483 kts | 52° |
| 2026-05-07 12:54 | 46.11308 | 6.41454 | 36041 ft | 483 kts | 53° |
| 2026-05-07 12:55 | 46.15145 | 6.49441 | 36042 ft | 483 kts | 53° |
| 2026-05-07 12:55 | 46.18916 | 6.57374 | 36024 ft | 482 kts | 53° |
| 2026-05-07 12:56 | 46.22727 | 6.65392 | 36024 ft | 482 kts | 53° |
| 2026-05-07 12:56 | 46.26503 | 6.73321 | 36035 ft | 482 kts | 53° |
| 2026-05-07 12:57 | 46.30301 | 6.81310 | 36015 ft | 482 kts | 53° |
| 2026-05-07 12:57 | 46.34087 | 6.89314 | 36009 ft | 482 kts | 53° |
| 2026-05-07 12:58 | 46.37853 | 6.97290 | 36009 ft | 482 kts | 53° |
| 2026-05-07 12:58 | 46.41625 | 7.05317 | 36006 ft | 482 kts | 53° |
| 2026-05-07 12:59 | 46.45387 | 7.13337 | 36006 ft | 481 kts | 53° |
| 2026-05-07 12:59 | 46.49160 | 7.21392 | 36005 ft | 481 kts | 53° |
| 2026-05-07 13:00 | 46.52776 | 7.29151 | 36009 ft | 481 kts | 54° |
| 2026-05-07 13:00 | 46.56529 | 7.37244 | 36016 ft | 481 kts | 54° |
| 2026-05-07 13:01 | 46.60245 | 7.45261 | 36011 ft | 480 kts | 54° |
| 2026-05-07 13:01 | 46.63992 | 7.53354 | 36013 ft | 480 kts | 54° |
| 2026-05-07 13:02 | 46.67688 | 7.61371 | 36021 ft | 480 kts | 54° |
| 2026-05-07 13:02 | 46.71417 | 7.69448 | 36020 ft | 480 kts | 54° |
| 2026-05-07 13:03 | 46.75160 | 7.77540 | 36040 ft | 480 kts | 54° |
| 2026-05-07 13:03 | 46.78783 | 7.85414 | 36042 ft | 480 kts | 54° |
| 2026-05-07 13:04 | 46.82449 | 7.93421 | 36047 ft | 479 kts | 54° |
| 2026-05-07 13:04 | 46.86150 | 8.01526 | 36044 ft | 478 kts | 55° |
| 2026-05-07 13:05 | 46.89730 | 8.09395 | 36048 ft | 479 kts | 54° |
| 2026-05-07 13:05 | 46.93094 | 8.16799 | 36050 ft | 478 kts | 54° |
| 2026-05-07 13:06 | 46.96657 | 8.24639 | 36054 ft | 478 kts | 55° |
| 2026-05-07 13:06 | 47.00387 | 8.32882 | 36076 ft | 478 kts | 55° |
| 2026-05-07 13:07 | 47.03970 | 8.40846 | 36079 ft | 478 kts | 55° |
| 2026-05-07 13:07 | 47.07572 | 8.48869 | 36076 ft | 478 kts | 55° |
| 2026-05-07 13:08 | 47.11224 | 8.57028 | 36071 ft | 477 kts | 55° |
| 2026-05-07 13:08 | 47.14878 | 8.65196 | 36056 ft | 477 kts | 55° |
| 2026-05-07 13:09 | 47.18490 | 8.73304 | 36068 ft | 477 kts | 55° |
| 2026-05-07 13:09 | 47.22117 | 8.81486 | 36070 ft | 477 kts | 56° |
| 2026-05-07 13:10 | 47.25740 | 8.89667 | 36068 ft | 477 kts | 56° |
| 2026-05-07 13:10 | 47.29359 | 8.97876 | 36066 ft | 477 kts | 56° |
| 2026-05-07 13:11 | 47.32791 | 9.05696 | 36062 ft | 476 kts | 56° |
| 2026-05-07 13:11 | 47.36389 | 9.13911 | 36057 ft | 476 kts | 56° |
| 2026-05-07 13:12 | 47.39381 | 9.20742 | 36052 ft | 476 kts | 56° |
| 2026-05-07 13:12 | 47.42911 | 9.28826 | 36051 ft | 476 kts | 56° |
| 2026-05-07 13:13 | 47.46503 | 9.37075 | 36048 ft | 476 kts | 56° |
| 2026-05-07 13:13 | 47.49824 | 9.44740 | 36049 ft | 476 kts | 56° |
| 2026-05-07 13:14 | 47.53385 | 9.52997 | 36048 ft | 476 kts | 56° |
| 2026-05-07 13:14 | 47.56710 | 9.61470 | 35892 ft | 476 kts | 66° |
| 2026-05-07 13:15 | 47.57773 | 9.66029 | 35644 ft | 475 kts | 76° |
| 2026-05-07 13:15 | 47.58305 | 9.70839 | 35409 ft | 474 kts | 87° |
| 2026-05-07 13:15 | 47.58268 | 9.75719 | 35170 ft | 473 kts | 94° |
| 2026-05-07 13:15 | 47.58064 | 9.80592 | 34937 ft | 473 kts | 94° |
| 2026-05-07 13:16 | 47.57857 | 9.85457 | 34702 ft | 473 kts | 94° |
| 2026-05-07 13:16 | 47.57651 | 9.90333 | 34470 ft | 473 kts | 94° |
| 2026-05-07 13:16 | 47.57450 | 9.95201 | 34238 ft | 473 kts | 94° |
| 2026-05-07 13:16 | 47.57251 | 10.00060 | 33997 ft | 473 kts | 94° |
| 2026-05-07 13:17 | 47.57052 | 10.04906 | 33302 ft | 475 kts | 94° |
| 2026-05-07 13:17 | 47.56844 | 10.09803 | 32412 ft | 475 kts | 94° |
| 2026-05-07 13:17 | 47.56636 | 10.14673 | 31521 ft | 475 kts | 93° |
| 2026-05-07 13:19 | 47.56569 | 10.18755 | 31952 ft | 343 kts | 84° |
| 2026-05-07 13:19 | 47.56809 | 10.22093 | 32572 ft | 340 kts | 91° |
| 2026-05-07 13:19 | 47.56497 | 10.25836 | 31187 ft | 390 kts | 99° |
| 2026-05-07 13:20 | 47.56046 | 10.30054 | 29879 ft | 436 kts | 97° |
| 2026-05-07 13:20 | 47.55665 | 10.34665 | 28466 ft | 475 kts | 95° |
| 2026-05-07 13:20 | 47.55367 | 10.39646 | 27288 ft | 489 kts | 93° |
| 2026-05-07 13:20 | 47.55152 | 10.44582 | 26244 ft | 473 kts | 92° |
| 2026-05-07 13:21 | 47.55077 | 10.49334 | 25683 ft | 450 kts | 85° |
| 2026-05-07 13:21 | 47.55478 | 10.53812 | 25432 ft | 440 kts | 77° |
| 2026-05-07 13:21 | 47.56312 | 10.58142 | 25184 ft | 435 kts | 68° |
| 2026-05-07 13:21 | 47.57530 | 10.62183 | 24736 ft | 426 kts | 59° |
| 2026-05-07 13:22 | 47.59013 | 10.65944 | 24194 ft | 421 kts | 58° |
| 2026-05-07 13:22 | 47.60505 | 10.69664 | 23647 ft | 415 kts | 57° |
| 2026-05-07 13:22 | 47.61956 | 10.73273 | 23070 ft | 410 kts | 57° |
| 2026-05-07 13:22 | 47.63397 | 10.76861 | 22589 ft | 401 kts | 57° |
| 2026-05-07 13:23 | 47.64809 | 10.80379 | 22111 ft | 393 kts | 58° |
| 2026-05-07 13:23 | 47.66105 | 10.83614 | 21708 ft | 388 kts | 58° |
| 2026-05-07 13:23 | 47.67528 | 10.87006 | 21271 ft | 385 kts | 52° |
| 2026-05-07 13:23 | 47.69247 | 10.90037 | 20832 ft | 382 kts | 43° |
| 2026-05-07 13:24 | 47.71232 | 10.92610 | 20404 ft | 379 kts | 36° |
| 2026-05-07 13:24 | 47.72603 | 10.94222 | 20141 ft | 378 kts | 36° |
| 2026-05-07 13:24 | 47.74562 | 10.96537 | 19745 ft | 376 kts | 36° |
| 2026-05-07 13:24 | 47.76610 | 10.98963 | 19331 ft | 374 kts | 36° |
| 2026-05-07 13:25 | 47.79296 | 11.02154 | 18777 ft | 372 kts | 37° |
| 2026-05-07 13:25 | 47.81313 | 11.04558 | 18352 ft | 371 kts | 37° |
| 2026-05-07 13:25 | 47.83320 | 11.06958 | 17886 ft | 369 kts | 37° |
| 2026-05-07 13:25 | 47.85315 | 11.09348 | 17463 ft | 367 kts | 37° |
| 2026-05-07 13:26 | 47.86628 | 11.10922 | 17174 ft | 366 kts | 37° |
| 2026-05-07 13:26 | 47.88643 | 11.13328 | 16708 ft | 364 kts | 37° |
| 2026-05-07 13:26 | 47.90589 | 11.15645 | 16281 ft | 362 kts | 36° |
| 2026-05-07 13:26 | 47.92553 | 11.17981 | 15832 ft | 360 kts | 36° |
| 2026-05-07 13:27 | 47.94501 | 11.20300 | 15382 ft | 358 kts | 36° |
| 2026-05-07 13:27 | 47.96442 | 11.22613 | 14933 ft | 356 kts | 36° |
| 2026-05-07 13:27 | 47.98374 | 11.24918 | 14482 ft | 354 kts | 36° |
| 2026-05-07 13:27 | 48.00291 | 11.27208 | 14029 ft | 353 kts | 36° |
| 2026-05-07 13:28 | 48.02233 | 11.29528 | 13535 ft | 351 kts | 36° |
| 2026-05-07 13:28 | 48.04103 | 11.31768 | 13148 ft | 348 kts | 37° |
| 2026-05-07 13:28 | 48.05958 | 11.34201 | 13068 ft | 364 kts | 39° |
| 2026-05-07 13:28 | 48.07888 | 11.36694 | 12980 ft | 369 kts | 38° |
| 2026-05-07 13:29 | 48.09845 | 11.39198 | 12916 ft | 370 kts | 38° |
| 2026-05-07 13:29 | 48.11801 | 11.41701 | 12835 ft | 370 kts | 38° |
| 2026-05-07 13:29 | 48.13757 | 11.44207 | 12754 ft | 369 kts | 38° |
| 2026-05-07 13:29 | 48.15237 | 11.46032 | 12693 ft | 356 kts | 36° |
| 2026-05-07 13:30 | 48.17188 | 11.48287 | 12603 ft | 351 kts | 34° |
| 2026-05-07 13:30 | 48.19139 | 11.50450 | 12533 ft | 349 kts | 35° |
| 2026-05-07 13:30 | 48.20953 | 11.52861 | 12448 ft | 350 kts | 45° |
| 2026-05-07 13:30 | 48.22467 | 11.55740 | 12349 ft | 352 kts | 56° |
| 2026-05-07 13:31 | 48.23599 | 11.58981 | 12098 ft | 351 kts | 67° |
| 2026-05-07 13:31 | 48.24315 | 11.62478 | 11835 ft | 350 kts | 78° |
| 2026-05-07 13:31 | 48.24654 | 11.66085 | 11580 ft | 349 kts | 84° |
| 2026-05-07 13:31 | 48.24922 | 11.69697 | 11332 ft | 348 kts | 83° |
| 2026-05-07 13:32 | 48.25199 | 11.73308 | 11079 ft | 347 kts | 83° |
| 2026-05-07 13:32 | 48.25477 | 11.76894 | 10829 ft | 345 kts | 83° |
| 2026-05-07 13:32 | 48.25753 | 11.80413 | 10585 ft | 343 kts | 83° |
| 2026-05-07 13:32 | 48.26035 | 11.83997 | 10187 ft | 340 kts | 83° |
| 2026-05-07 13:33 | 48.26303 | 11.87447 | 9877 ft | 332 kts | 83° |
| 2026-05-07 13:33 | 48.26559 | 11.90815 | 9747 ft | 318 kts | 83° |
| 2026-05-07 13:33 | 48.26801 | 11.94063 | 9563 ft | 307 kts | 83° |
| 2026-05-07 13:33 | 48.27037 | 11.97233 | 9203 ft | 302 kts | 83° |
| 2026-05-07 13:34 | 48.27269 | 12.00357 | 8807 ft | 300 kts | 83° |
| 2026-05-07 13:34 | 48.27726 | 12.06419 | 8162 ft | 296 kts | 83° |
| 2026-05-07 13:34 | 48.27961 | 12.09559 | 7744 ft | 295 kts | 83° |
| 2026-05-07 13:35 | 48.28186 | 12.12609 | 7340 ft | 293 kts | 83° |
| 2026-05-07 13:35 | 48.28409 | 12.15636 | 7030 ft | 289 kts | 84° |
| 2026-05-07 13:35 | 48.28632 | 12.18646 | 6989 ft | 291 kts | 83° |
| 2026-05-07 13:35 | 48.28855 | 12.21679 | 6998 ft | 292 kts | 83° |
| 2026-05-07 13:36 | 48.29283 | 12.24652 | 6994 ft | 291 kts | 64° |
| 2026-05-07 13:36 | 48.30458 | 12.27087 | 6835 ft | 290 kts | 37° |
| 2026-05-07 13:36 | 48.32194 | 12.28500 | 6468 ft | 281 kts | 10° |
| 2026-05-07 13:36 | 48.34107 | 12.28610 | 6016 ft | 274 kts | 344° |
| 2026-05-07 13:37 | 48.35787 | 12.27535 | 5543 ft | 254 kts | 320° |
| 2026-05-07 13:37 | 48.36934 | 12.25685 | 5142 ft | 233 kts | 298° |
| 2026-05-07 13:37 | 48.37483 | 12.23520 | 5008 ft | 214 kts | 279° |
| 2026-05-07 13:37 | 48.37524 | 12.21345 | 4988 ft | 203 kts | 263° |
| 2026-05-07 13:38 | 48.37367 | 12.19257 | 4998 ft | 200 kts | 264° |
| 2026-05-07 13:38 | 48.37218 | 12.17186 | 4997 ft | 198 kts | 264° |
| 2026-05-07 13:38 | 48.37068 | 12.15119 | 4999 ft | 199 kts | 264° |
| 2026-05-07 13:38 | 48.36918 | 12.13081 | 5003 ft | 198 kts | 264° |
| 2026-05-07 13:39 | 48.36767 | 12.11024 | 4994 ft | 199 kts | 264° |
| 2026-05-07 13:39 | 48.36615 | 12.08960 | 5008 ft | 193 kts | 264° |
| 2026-05-07 13:39 | 48.36476 | 12.07077 | 4948 ft | 170 kts | 264° |
| 2026-05-07 13:39 | 48.36350 | 12.05376 | 4771 ft | 159 kts | 264° |
| 2026-05-07 13:40 | 48.36231 | 12.03762 | 4605 ft | 153 kts | 265° |
| 2026-05-07 13:40 | 48.36114 | 12.02187 | 4395 ft | 151 kts | 265° |
| 2026-05-07 13:40 | 48.35999 | 12.00642 | 4192 ft | 146 kts | 266° |
| 2026-05-07 13:40 | 48.35887 | 11.99137 | 3994 ft | 143 kts | 265° |
| 2026-05-07 13:41 | 48.35776 | 11.97659 | 3807 ft | 142 kts | 265° |
| 2026-05-07 13:41 | 48.35667 | 11.96188 | 3611 ft | 141 kts | 265° |
| 2026-05-07 13:41 | 48.35558 | 11.94739 | 3438 ft | 139 kts | 266° |
| 2026-05-07 13:41 | 48.35455 | 11.93319 | 3251 ft | 136 kts | 266° |
| 2026-05-07 13:42 | 48.35340 | 11.91917 | 3035 ft | 136 kts | 264° |
| 2026-05-07 13:42 | 48.35222 | 11.90514 | 2860 ft | 135 kts | 265° |
| 2026-05-07 13:42 | 48.35112 | 11.89117 | 2699 ft | 134 kts | 264° |
| 2026-05-07 13:42 | 48.35008 | 11.87699 | 2500 ft | 139 kts | 266° |
| 2026-05-07 13:43 | 48.34906 | 11.86247 | 2295 ft | 141 kts | 266° |
| 2026-05-07 13:43 | 48.34796 | 11.84780 | 2085 ft | 141 kts | 264° |
| 2026-05-07 13:43 | 48.34687 | 11.83317 | 1894 ft | 139 kts | 266° |
| 2026-05-07 13:43 | 48.34579 | 11.81876 | 1747 ft | 139 kts | 266° |
| 2026-05-07 13:44 | 48.34473 | 11.80453 | 1517 ft | 138 kts | 267° |
| 2026-05-07 13:44 | 48.34401 | 11.79357 | 1465 ft | 119 kts | 266° |
| 2026-05-07 13:44 | 48.34326 | 11.78413 | 1470 ft | 66 kts | 263° |
| 2026-05-07 13:44 | 48.34321 | 11.77973 | 1460 ft | 36 kts | 287° |
| 2026-05-07 13:45 | 48.34390 | 11.77760 | 1466 ft | 16 kts | 292° |
| 2026-05-07 13:45 | 48.34434 | 11.77604 | 1462 ft | 15 kts | 292° |
| 2026-05-07 13:45 | 48.34478 | 11.77466 | 1460 ft | 14 kts | 306° |
| 2026-05-07 13:45 | 48.34553 | 11.77435 | 1466 ft | 11 kts | 355° |
| 2026-05-07 13:46 | 48.34619 | 11.77453 | 1462 ft | 10 kts | 40° |
| 2026-05-07 13:46 | 48.34641 | 11.77610 | 1463 ft | 19 kts | 84° |
| 2026-05-07 13:46 | 48.34653 | 11.77792 | 1459 ft | 17 kts | 85° |
| 2026-05-07 13:46 | 48.34663 | 11.77969 | 1466 ft | 16 kts | 83° |
| 2026-05-07 13:47 | 48.34677 | 11.78124 | 1466 ft | 14 kts | 82° |
| 2026-05-07 13:47 | 48.34689 | 11.78272 | 1467 ft | 19 kts | 83° |
| 2026-05-07 13:47 | 48.34709 | 11.78503 | 1467 ft | 26 kts | 83° |
| 2026-05-07 13:47 | 48.34731 | 11.78806 | 1467 ft | 32 kts | 83° |
| 2026-05-07 13:48 | 48.34758 | 11.79139 | 1467 ft | 20 kts | 85° |
| 2026-05-07 13:48 | 48.34772 | 11.79340 | 1461 ft | 19 kts | 83° |
| 2026-05-07 13:48 | 48.34787 | 11.79533 | 1464 ft | 18 kts | 83° |
| 2026-05-07 13:48 | 48.34817 | 11.79690 | 1461 ft | 9 kts | 28° |
| 2026-05-07 13:49 | 48.34876 | 11.79688 | 1466 ft | 9 kts | 355° |
| 2026-05-07 13:49 | 48.34974 | 11.79673 | 1465 ft | 16 kts | 353° |
| 2026-05-07 13:49 | 48.35070 | 11.79666 | 1459 ft | 11 kts | 16° |
| 2026-05-07 13:49 | 48.35102 | 11.79752 | 1462 ft | 9 kts | 88° |
| 2026-05-07 13:50 | 48.35111 | 11.79890 | 1467 ft | 20 kts | 84° |
| 2026-05-07 13:50 | 48.35127 | 11.80084 | 1459 ft | 14 kts | 82° |
| 2026-05-07 13:50 | 48.35157 | 11.80194 | 1464 ft | 9 kts | 7° |
| 2026-05-07 13:50 | 48.35219 | 11.80186 | 1464 ft | 9 kts | 353° |
| 2026-05-07 13:51 | 48.35324 | 11.80167 | 1465 ft | 19 kts | 352° |
| 2026-05-07 13:51 | 48.35449 | 11.80133 | 1464 ft | 18 kts | 353° |
| 2026-05-07 13:51 | 48.35544 | 11.80118 | 1465 ft | 13 kts | 354° |
| 2026-05-07 13:51 | 48.35624 | 11.80105 | 1465 ft | 4 kts | 352° |
| 2026-05-07 13:52 | 48.35640 | 11.80087 | 1465 ft | 2 kts | 301° |
| 2026-05-07 13:52 | 48.35642 | 11.80070 | 1467 ft | 3 kts | 283° |
| 2026-05-07 13:52 | 48.35639 | 11.80016 | 1467 ft | 3 kts | 265° |
| 2026-05-07 13:52 | 48.35638 | 11.79983 | 1467 ft | 3 kts | 265° |
| 2026-05-07 13:53 | 48.35638 | 11.79973 | 1467 ft | 1 kts | 265° |
| 2026-05-07 13:53 | 48.35637 | 11.79970 | 1461 ft | 0 kts | 265° |